sensor_id;sensor_type;location;lat;lon;timestamp;temperature;humidity
41838;DHT22;27511;52.042;5.178;2022-12-18T00:01:52;1.10;99.90
41838;DHT22;27511;52.042;5.178;2022-12-18T00:04:20;1.10;99.90
41838;DHT22;27511;52.042;5.178;2022-12-18T00:06:45;1.20;99.90
41838;DHT22;27511;52.042;5.178;2022-12-18T00:09:11;1.20;99.90
41838;DHT22;27511;52.042;5.178;2022-12-18T00:11:36;1.20;99.90
41838;DHT22;27511;52.042;5.178;2022-12-18T00:14:02;1.30;99.90
41838;DHT22;27511;52.042;5.178;2022-12-18T00:16:28;1.40;99.90
41838;DHT22;27511;52.042;5.178;2022-12-18T00:18:55;1.30;99.90
41838;DHT22;27511;52.042;5.178;2022-12-18T00:21:21;1.30;99.90
41838;DHT22;27511;52.042;5.178;2022-12-18T00:23:47;1.30;99.90
41838;DHT22;27511;52.042;5.178;2022-12-18T00:26:14;1.40;99.90
41838;DHT22;27511;52.042;5.178;2022-12-18T00:28:43;1.40;99.90
41838;DHT22;27511;52.042;5.178;2022-12-18T00:31:13;1.40;99.90
41838;DHT22;27511;52.042;5.178;2022-12-18T00:33:38;1.50;99.90
41838;DHT22;27511;52.042;5.178;2022-12-18T00:36:04;1.50;99.90
41838;DHT22;27511;52.042;5.178;2022-12-18T00:38:30;1.50;99.90
41838;DHT22;27511;52.042;5.178;2022-12-18T00:40:56;1.50;99.90
41838;DHT22;27511;52.042;5.178;2022-12-18T00:43:21;1.20;99.90
41838;DHT22;27511;52.042;5.178;2022-12-18T00:45:47;1.20;99.90
41838;DHT22;27511;52.042;5.178;2022-12-18T00:48:12;1.20;99.90
41838;DHT22;27511;52.042;5.178;2022-12-18T00:50:38;1.20;99.90
41838;DHT22;27511;52.042;5.178;2022-12-18T00:53:03;1.10;99.90
41838;DHT22;27511;52.042;5.178;2022-12-18T00:55:29;1.10;99.90
41838;DHT22;27511;52.042;5.178;2022-12-18T00:57:54;1.00;99.90
41838;DHT22;27511;52.042;5.178;2022-12-18T01:00:20;0.80;99.90
41838;DHT22;27511;52.042;5.178;2022-12-18T01:02:45;0.70;99.90
41838;DHT22;27511;52.042;5.178;2022-12-18T01:05:11;0.80;99.90
41838;DHT22;27511;52.042;5.178;2022-12-18T01:07:36;0.90;99.90
41838;DHT22;27511;52.042;5.178;2022-12-18T01:10:02;1.00;99.90
41838;DHT22;27511;52.042;5.178;2022-12-18T01:12:28;1.00;99.90
41838;DHT22;27511;52.042;5.178;2022-12-18T01:14:54;1.10;99.90
41838;DHT22;27511;52.042;5.178;2022-12-18T01:17:19;1.00;99.90
41838;DHT22;27511;52.042;5.178;2022-12-18T01:19:44;0.90;99.90
41838;DHT22;27511;52.042;5.178;2022-12-18T01:22:10;0.80;99.90
41838;DHT22;27511;52.042;5.178;2022-12-18T01:24:35;0.90;99.90
41838;DHT22;27511;52.042;5.178;2022-12-18T01:27:01;0.90;99.90
41838;DHT22;27511;52.042;5.178;2022-12-18T01:29:26;0.90;99.90
41838;DHT22;27511;52.042;5.178;2022-12-18T01:31:54;0.90;99.90
41838;DHT22;27511;52.042;5.178;2022-12-18T01:34:19;0.90;99.90
41838;DHT22;27511;52.042;5.178;2022-12-18T01:36:45;0.90;99.90
41838;DHT22;27511;52.042;5.178;2022-12-18T01:39:11;0.80;99.90
41838;DHT22;27511;52.042;5.178;2022-12-18T01:41:37;0.90;99.90
41838;DHT22;27511;52.042;5.178;2022-12-18T01:47:05;0.90;99.90
41838;DHT22;27511;52.042;5.178;2022-12-18T01:49:31;0.80;99.90
41838;DHT22;27511;52.042;5.178;2022-12-18T01:51:56;0.90;99.90
41838;DHT22;27511;52.042;5.178;2022-12-18T01:54:22;0.80;99.90
41838;DHT22;27511;52.042;5.178;2022-12-18T01:56:47;0.80;99.90
41838;DHT22;27511;52.042;5.178;2022-12-18T01:59:13;0.90;99.90
41838;DHT22;27511;52.042;5.178;2022-12-18T02:01:38;0.90;99.90
41838;DHT22;27511;52.042;5.178;2022-12-18T02:04:23;1.10;99.90
41838;DHT22;27511;52.042;5.178;2022-12-18T02:09:36;1.00;99.90
41838;DHT22;27511;52.042;5.178;2022-12-18T02:12:10;1.00;99.90
41838;DHT22;27511;52.042;5.178;2022-12-18T02:14:59;1.00;99.90
41838;DHT22;27511;52.042;5.178;2022-12-18T02:17:30;1.00;99.90
41838;DHT22;27511;52.042;5.178;2022-12-18T02:27:29;0.90;99.90
41838;DHT22;27511;52.042;5.178;2022-12-18T02:29:56;0.90;99.90
41838;DHT22;27511;52.042;5.178;2022-12-18T02:32:24;0.80;99.90
41838;DHT22;27511;52.042;5.178;2022-12-18T02:34:51;0.80;99.90
41838;DHT22;27511;52.042;5.178;2022-12-18T02:37:18;0.80;99.90
41838;DHT22;27511;52.042;5.178;2022-12-18T02:39:44;0.70;99.90
41838;DHT22;27511;52.042;5.178;2022-12-18T02:42:11;0.80;99.90
41838;DHT22;27511;52.042;5.178;2022-12-18T02:44:48;0.80;99.90
41838;DHT22;27511;52.042;5.178;2022-12-18T02:47:15;0.70;99.90
41838;DHT22;27511;52.042;5.178;2022-12-18T02:54:59;0.60;99.90
41838;DHT22;27511;52.042;5.178;2022-12-18T03:02:31;0.50;99.90
41838;DHT22;27511;52.042;5.178;2022-12-18T03:07:34;0.40;99.90
41838;DHT22;27511;52.042;5.178;2022-12-18T03:10:02;0.40;99.90
41838;DHT22;27511;52.042;5.178;2022-12-18T03:12:31;0.40;99.90
41838;DHT22;27511;52.042;5.178;2022-12-18T03:15:03;0.40;99.90
41838;DHT22;27511;52.042;5.178;2022-12-18T03:17:30;0.30;99.90
41838;DHT22;27511;52.042;5.178;2022-12-18T03:19:58;0.30;99.90
41838;DHT22;27511;52.042;5.178;2022-12-18T03:22:25;0.30;99.90
41838;DHT22;27511;52.042;5.178;2022-12-18T03:24:52;0.30;99.90
41838;DHT22;27511;52.042;5.178;2022-12-18T03:27:19;0.30;99.90
41838;DHT22;27511;52.042;5.178;2022-12-18T03:29:47;0.20;99.90
41838;DHT22;27511;52.042;5.178;2022-12-18T03:32:20;0.20;99.90
41838;DHT22;27511;52.042;5.178;2022-12-18T03:34:46;0.20;99.90
41838;DHT22;27511;52.042;5.178;2022-12-18T03:37:13;0.20;99.90
41838;DHT22;27511;52.042;5.178;2022-12-18T03:39:40;0.20;99.90
41838;DHT22;27511;52.042;5.178;2022-12-18T03:44:53;0.20;99.90
41838;DHT22;27511;52.042;5.178;2022-12-18T03:47:32;0.20;99.90
41838;DHT22;27511;52.042;5.178;2022-12-18T03:54:54;0.20;99.90
41838;DHT22;27511;52.042;5.178;2022-12-18T03:57:21;0.30;99.90
41838;DHT22;27511;52.042;5.178;2022-12-18T03:59:47;0.30;99.90
41838;DHT22;27511;52.042;5.178;2022-12-18T04:02:15;0.20;99.90
41838;DHT22;27511;52.042;5.178;2022-12-18T04:04:41;0.20;99.90
41838;DHT22;27511;52.042;5.178;2022-12-18T04:07:08;0.20;99.90
41838;DHT22;27511;52.042;5.178;2022-12-18T04:09:34;0.20;99.90
41838;DHT22;27511;52.042;5.178;2022-12-18T04:12:00;0.10;99.90
41838;DHT22;27511;52.042;5.178;2022-12-18T04:14:25;0.20;99.90
41838;DHT22;27511;52.042;5.178;2022-12-18T04:16:51;0.20;99.90
41838;DHT22;27511;52.042;5.178;2022-12-18T04:19:16;0.10;99.90
41838;DHT22;27511;52.042;5.178;2022-12-18T04:21:42;0.30;99.90
41838;DHT22;27511;52.042;5.178;2022-12-18T04:24:07;0.10;99.90
41838;DHT22;27511;52.042;5.178;2022-12-18T04:26:33;0.10;99.90
41838;DHT22;27511;52.042;5.178;2022-12-18T04:28:59;0.10;99.90
41838;DHT22;27511;52.042;5.178;2022-12-18T04:31:24;0.10;99.90
41838;DHT22;27511;52.042;5.178;2022-12-18T04:33:50;0.10;99.90
41838;DHT22;27511;52.042;5.178;2022-12-18T04:36:15;0.10;99.90
41838;DHT22;27511;52.042;5.178;2022-12-18T04:38:41;0.10;99.90
41838;DHT22;27511;52.042;5.178;2022-12-18T04:41:06;0.00;99.90
41838;DHT22;27511;52.042;5.178;2022-12-18T04:43:32;0.10;99.90
41838;DHT22;27511;52.042;5.178;2022-12-18T04:46:04;0.10;99.90
41838;DHT22;27511;52.042;5.178;2022-12-18T04:48:30;0.20;99.90
41838;DHT22;27511;52.042;5.178;2022-12-18T04:50:56;0.20;99.90
41838;DHT22;27511;52.042;5.178;2022-12-18T04:53:21;0.20;99.90
41838;DHT22;27511;52.042;5.178;2022-12-18T04:55:47;0.20;99.90
41838;DHT22;27511;52.042;5.178;2022-12-18T04:58:12;0.00;99.90
41838;DHT22;27511;52.042;5.178;2022-12-18T05:00:38;0.00;99.90
41838;DHT22;27511;52.042;5.178;2022-12-18T05:03:03;0.10;99.90
41838;DHT22;27511;52.042;5.178;2022-12-18T05:05:28;0.10;99.90
41838;DHT22;27511;52.042;5.178;2022-12-18T05:07:54;0.10;99.90
41838;DHT22;27511;52.042;5.178;2022-12-18T05:10:19;0.10;99.90
41838;DHT22;27511;52.042;5.178;2022-12-18T05:12:45;0.10;99.90
41838;DHT22;27511;52.042;5.178;2022-12-18T05:15:27;0.10;99.90
41838;DHT22;27511;52.042;5.178;2022-12-18T05:17:52;0.10;99.90
41838;DHT22;27511;52.042;5.178;2022-12-18T05:20:18;0.10;99.90
41838;DHT22;27511;52.042;5.178;2022-12-18T05:22:43;0.10;99.90
41838;DHT22;27511;52.042;5.178;2022-12-18T05:25:09;0.10;99.90
41838;DHT22;27511;52.042;5.178;2022-12-18T05:27:34;0.10;99.90
41838;DHT22;27511;52.042;5.178;2022-12-18T05:30:00;0.10;99.90
41838;DHT22;27511;52.042;5.178;2022-12-18T05:32:25;0.00;99.90
41838;DHT22;27511;52.042;5.178;2022-12-18T05:34:51;0.10;99.90
41838;DHT22;27511;52.042;5.178;2022-12-18T05:37:16;0.00;99.90
41838;DHT22;27511;52.042;5.178;2022-12-18T05:39:42;0.00;99.90
41838;DHT22;27511;52.042;5.178;2022-12-18T05:42:07;0.00;99.90
41838;DHT22;27511;52.042;5.178;2022-12-18T05:44:33;-0.10;99.90
41838;DHT22;27511;52.042;5.178;2022-12-18T05:46:59;-0.10;99.90
41838;DHT22;27511;52.042;5.178;2022-12-18T05:49:24;-0.10;99.90
41838;DHT22;27511;52.042;5.178;2022-12-18T05:51:50;-0.10;99.90
41838;DHT22;27511;52.042;5.178;2022-12-18T05:54:15;-0.20;99.90
41838;DHT22;27511;52.042;5.178;2022-12-18T05:56:41;-0.20;99.90
41838;DHT22;27511;52.042;5.178;2022-12-18T05:59:06;-0.20;99.90
41838;DHT22;27511;52.042;5.178;2022-12-18T06:01:32;-0.20;99.90
41838;DHT22;27511;52.042;5.178;2022-12-18T06:03:57;-0.20;99.90
41838;DHT22;27511;52.042;5.178;2022-12-18T06:06:23;-0.20;99.90
41838;DHT22;27511;52.042;5.178;2022-12-18T06:08:50;-0.20;99.90
41838;DHT22;27511;52.042;5.178;2022-12-18T06:11:16;-0.20;99.90
41838;DHT22;27511;52.042;5.178;2022-12-18T06:13:42;-0.20;99.90
41838;DHT22;27511;52.042;5.178;2022-12-18T06:16:07;-0.20;99.90
41838;DHT22;27511;52.042;5.178;2022-12-18T06:18:33;-0.20;99.90
41838;DHT22;27511;52.042;5.178;2022-12-18T06:20:59;-0.30;99.90
41838;DHT22;27511;52.042;5.178;2022-12-18T06:23:25;-0.40;99.90
41838;DHT22;27511;52.042;5.178;2022-12-18T06:25:50;-0.40;99.90
41838;DHT22;27511;52.042;5.178;2022-12-18T06:28:16;-0.50;99.90
41838;DHT22;27511;52.042;5.178;2022-12-18T06:30:45;-0.30;99.90
41838;DHT22;27511;52.042;5.178;2022-12-18T06:33:10;-0.40;99.90
41838;DHT22;27511;52.042;5.178;2022-12-18T06:35:36;-0.30;99.90
41838;DHT22;27511;52.042;5.178;2022-12-18T06:38:02;-0.40;99.90
41838;DHT22;27511;52.042;5.178;2022-12-18T06:40:27;-0.30;99.90
41838;DHT22;27511;52.042;5.178;2022-12-18T06:42:52;-0.40;99.90
41838;DHT22;27511;52.042;5.178;2022-12-18T06:45:18;-0.40;99.90
41838;DHT22;27511;52.042;5.178;2022-12-18T06:47:43;-0.10;99.90
41838;DHT22;27511;52.042;5.178;2022-12-18T06:50:09;-0.20;99.90
41838;DHT22;27511;52.042;5.178;2022-12-18T06:52:35;-0.20;99.90
41838;DHT22;27511;52.042;5.178;2022-12-18T06:55:00;-0.30;99.90
41838;DHT22;27511;52.042;5.178;2022-12-18T06:57:26;-0.20;99.90
41838;DHT22;27511;52.042;5.178;2022-12-18T06:59:51;-0.20;99.90
41838;DHT22;27511;52.042;5.178;2022-12-18T07:02:17;-0.20;99.90
41838;DHT22;27511;52.042;5.178;2022-12-18T07:04:42;-0.20;99.90
41838;DHT22;27511;52.042;5.178;2022-12-18T07:07:08;-0.30;99.90
41838;DHT22;27511;52.042;5.178;2022-12-18T07:09:33;-0.30;99.90
41838;DHT22;27511;52.042;5.178;2022-12-18T07:11:59;-0.30;99.90
41838;DHT22;27511;52.042;5.178;2022-12-18T07:14:24;-0.30;99.90
41838;DHT22;27511;52.042;5.178;2022-12-18T07:16:49;-0.30;99.90
41838;DHT22;27511;52.042;5.178;2022-12-18T07:19:15;-0.30;99.90
41838;DHT22;27511;52.042;5.178;2022-12-18T07:21:40;-0.30;99.90
41838;DHT22;27511;52.042;5.178;2022-12-18T07:24:06;-0.30;99.90
41838;DHT22;27511;52.042;5.178;2022-12-18T07:26:31;-0.30;99.90
41838;DHT22;27511;52.042;5.178;2022-12-18T07:28:57;-0.40;99.90
41838;DHT22;27511;52.042;5.178;2022-12-18T07:31:23;-0.40;99.90
41838;DHT22;27511;52.042;5.178;2022-12-18T07:33:49;-0.40;99.90
41838;DHT22;27511;52.042;5.178;2022-12-18T07:36:14;-0.30;99.90
41838;DHT22;27511;52.042;5.178;2022-12-18T07:38:40;-0.30;99.90
41838;DHT22;27511;52.042;5.178;2022-12-18T07:41:07;-0.40;99.90
41838;DHT22;27511;52.042;5.178;2022-12-18T07:43:33;-0.30;99.90
41838;DHT22;27511;52.042;5.178;2022-12-18T07:45:59;-0.30;99.90
41838;DHT22;27511;52.042;5.178;2022-12-18T07:48:24;-0.40;99.90
41838;DHT22;27511;52.042;5.178;2022-12-18T07:50:50;-0.30;99.90
41838;DHT22;27511;52.042;5.178;2022-12-18T07:53:15;-0.20;99.90
41838;DHT22;27511;52.042;5.178;2022-12-18T07:55:41;-0.20;99.90
41838;DHT22;27511;52.042;5.178;2022-12-18T07:58:07;-0.20;99.90
41838;DHT22;27511;52.042;5.178;2022-12-18T08:00:33;-0.20;99.90
41838;DHT22;27511;52.042;5.178;2022-12-18T08:02:59;-0.20;99.90
41838;DHT22;27511;52.042;5.178;2022-12-18T08:05:24;-0.20;99.90
41838;DHT22;27511;52.042;5.178;2022-12-18T08:07:50;-0.20;99.90
41838;DHT22;27511;52.042;5.178;2022-12-18T08:10:15;-0.20;99.90
41838;DHT22;27511;52.042;5.178;2022-12-18T08:12:41;-0.20;99.90
41838;DHT22;27511;52.042;5.178;2022-12-18T08:15:06;-0.20;99.90
41838;DHT22;27511;52.042;5.178;2022-12-18T08:17:32;-0.20;99.90
41838;DHT22;27511;52.042;5.178;2022-12-18T08:19:58;-0.20;99.90
41838;DHT22;27511;52.042;5.178;2022-12-18T08:22:23;-0.40;99.90
41838;DHT22;27511;52.042;5.178;2022-12-18T08:24:48;-0.30;99.90
41838;DHT22;27511;52.042;5.178;2022-12-18T08:27:14;-0.20;99.90
41838;DHT22;27511;52.042;5.178;2022-12-18T08:29:39;-0.20;99.90
41838;DHT22;27511;52.042;5.178;2022-12-18T08:32:05;-0.20;99.90
41838;DHT22;27511;52.042;5.178;2022-12-18T08:34:30;-0.20;99.90
41838;DHT22;27511;52.042;5.178;2022-12-18T08:36:56;-0.20;99.90
41838;DHT22;27511;52.042;5.178;2022-12-18T08:39:21;-0.10;99.90
41838;DHT22;27511;52.042;5.178;2022-12-18T08:41:47;0.00;99.90
41838;DHT22;27511;52.042;5.178;2022-12-18T08:44:32;0.10;99.90
41838;DHT22;27511;52.042;5.178;2022-12-18T08:47:04;0.10;99.90
41838;DHT22;27511;52.042;5.178;2022-12-18T08:49:30;0.10;99.90
41838;DHT22;27511;52.042;5.178;2022-12-18T08:51:56;0.10;99.90
41838;DHT22;27511;52.042;5.178;2022-12-18T08:54:22;0.20;99.90
41838;DHT22;27511;52.042;5.178;2022-12-18T08:56:48;0.20;99.90
41838;DHT22;27511;52.042;5.178;2022-12-18T08:59:15;0.20;99.90
41838;DHT22;27511;52.042;5.178;2022-12-18T09:01:40;0.30;99.90
41838;DHT22;27511;52.042;5.178;2022-12-18T09:04:07;0.40;99.90
41838;DHT22;27511;52.042;5.178;2022-12-18T09:06:33;0.40;99.90
41838;DHT22;27511;52.042;5.178;2022-12-18T09:08:58;0.50;99.90
41838;DHT22;27511;52.042;5.178;2022-12-18T09:11:25;0.50;99.90
41838;DHT22;27511;52.042;5.178;2022-12-18T09:13:50;0.50;99.90
41838;DHT22;27511;52.042;5.178;2022-12-18T09:16:16;0.60;99.90
41838;DHT22;27511;52.042;5.178;2022-12-18T09:18:42;0.70;99.90
41838;DHT22;27511;52.042;5.178;2022-12-18T09:21:12;0.70;99.90
41838;DHT22;27511;52.042;5.178;2022-12-18T09:23:37;0.80;99.90
41838;DHT22;27511;52.042;5.178;2022-12-18T09:26:03;0.80;99.90
41838;DHT22;27511;52.042;5.178;2022-12-18T09:28:28;0.60;99.90
41838;DHT22;27511;52.042;5.178;2022-12-18T09:30:54;0.80;99.90
41838;DHT22;27511;52.042;5.178;2022-12-18T09:33:19;0.90;99.90
41838;DHT22;27511;52.042;5.178;2022-12-18T09:35:45;1.00;99.90
41838;DHT22;27511;52.042;5.178;2022-12-18T09:38:11;1.00;99.90
41838;DHT22;27511;52.042;5.178;2022-12-18T09:40:48;0.90;99.90
41838;DHT22;27511;52.042;5.178;2022-12-18T09:43:28;0.90;99.90
41838;DHT22;27511;52.042;5.178;2022-12-18T09:45:58;1.00;99.90
41838;DHT22;27511;52.042;5.178;2022-12-18T09:48:26;0.80;99.90
41838;DHT22;27511;52.042;5.178;2022-12-18T09:50:55;0.80;99.90
41838;DHT22;27511;52.042;5.178;2022-12-18T09:53:22;0.90;99.90
41838;DHT22;27511;52.042;5.178;2022-12-18T09:55:50;1.00;99.90
41838;DHT22;27511;52.042;5.178;2022-12-18T10:00:45;1.10;99.90
41838;DHT22;27511;52.042;5.178;2022-12-18T10:03:11;1.20;99.90
41838;DHT22;27511;52.042;5.178;2022-12-18T10:13:45;1.40;99.90
41838;DHT22;27511;52.042;5.178;2022-12-18T10:16:17;1.40;99.90
41838;DHT22;27511;52.042;5.178;2022-12-18T10:21:11;1.40;99.90
41838;DHT22;27511;52.042;5.178;2022-12-18T10:26:06;1.30;99.90
41838;DHT22;27511;52.042;5.178;2022-12-18T10:28:33;1.30;99.90
41838;DHT22;27511;52.042;5.178;2022-12-18T10:30:59;1.40;99.90
41838;DHT22;27511;52.042;5.178;2022-12-18T10:33:27;1.40;99.90
41838;DHT22;27511;52.042;5.178;2022-12-18T10:35:53;1.50;99.90
41838;DHT22;27511;52.042;5.178;2022-12-18T10:40:53;1.60;99.90
41838;DHT22;27511;52.042;5.178;2022-12-18T10:48:28;1.80;99.90
41838;DHT22;27511;52.042;5.178;2022-12-18T10:50:54;1.80;99.90
41838;DHT22;27511;52.042;5.178;2022-12-18T10:53:27;1.90;99.90
41838;DHT22;27511;52.042;5.178;2022-12-18T10:55:53;1.80;99.90
41838;DHT22;27511;52.042;5.178;2022-12-18T10:58:22;1.90;99.90
41838;DHT22;27511;52.042;5.178;2022-12-18T11:03:35;1.90;99.90
41838;DHT22;27511;52.042;5.178;2022-12-18T11:06:02;2.10;99.90
41838;DHT22;27511;52.042;5.178;2022-12-18T11:08:29;2.00;99.90
41838;DHT22;27511;52.042;5.178;2022-12-18T11:10:55;2.00;99.90
41838;DHT22;27511;52.042;5.178;2022-12-18T11:13:21;2.10;99.90
41838;DHT22;27511;52.042;5.178;2022-12-18T11:15:47;2.10;99.90
41838;DHT22;27511;52.042;5.178;2022-12-18T11:18:17;2.00;99.90
41838;DHT22;27511;52.042;5.178;2022-12-18T11:20:43;2.10;99.90
41838;DHT22;27511;52.042;5.178;2022-12-18T11:23:15;2.20;99.90
41838;DHT22;27511;52.042;5.178;2022-12-18T11:25:41;2.10;99.90
41838;DHT22;27511;52.042;5.178;2022-12-18T11:28:29;2.20;99.90
41838;DHT22;27511;52.042;5.178;2022-12-18T11:33:34;2.30;99.90
41838;DHT22;27511;52.042;5.178;2022-12-18T11:36:00;2.40;99.90
41838;DHT22;27511;52.042;5.178;2022-12-18T11:38:39;2.50;99.90
41838;DHT22;27511;52.042;5.178;2022-12-18T11:41:23;2.50;99.90
41838;DHT22;27511;52.042;5.178;2022-12-18T11:44:10;2.60;99.90
41838;DHT22;27511;52.042;5.178;2022-12-18T11:46:37;2.60;99.90
41838;DHT22;27511;52.042;5.178;2022-12-18T11:49:14;2.70;99.90
41838;DHT22;27511;52.042;5.178;2022-12-18T11:52:04;2.70;99.90
41838;DHT22;27511;52.042;5.178;2022-12-18T11:54:26;2.70;99.90
41838;DHT22;27511;52.042;5.178;2022-12-18T11:56:56;2.60;99.90
41838;DHT22;27511;52.042;5.178;2022-12-18T12:02:13;2.70;99.90
41838;DHT22;27511;52.042;5.178;2022-12-18T12:29:33;3.30;99.90
41838;DHT22;27511;52.042;5.178;2022-12-18T12:32:07;3.30;99.90
41838;DHT22;27511;52.042;5.178;2022-12-18T12:39:40;3.20;99.90
41838;DHT22;27511;52.042;5.178;2022-12-18T12:42:12;3.40;99.90
41838;DHT22;27511;52.042;5.178;2022-12-18T12:44:59;3.30;99.90
41838;DHT22;27511;52.042;5.178;2022-12-18T12:47:30;3.50;99.90
41838;DHT22;27511;52.042;5.178;2022-12-18T12:49:58;3.50;99.90
41838;DHT22;27511;52.042;5.178;2022-12-18T12:52:28;3.50;99.90
41838;DHT22;27511;52.042;5.178;2022-12-18T12:54:55;3.50;99.90
41838;DHT22;27511;52.042;5.178;2022-12-18T12:57:29;3.60;99.90
41838;DHT22;27511;52.042;5.178;2022-12-18T13:00:04;3.60;99.90
41838;DHT22;27511;52.042;5.178;2022-12-18T13:02:42;3.50;99.90
41838;DHT22;27511;52.042;5.178;2022-12-18T13:05:24;3.40;99.90
41838;DHT22;27511;52.042;5.178;2022-12-18T13:07:52;3.40;99.90
41838;DHT22;27511;52.042;5.178;2022-12-18T13:13:06;3.30;99.90
41838;DHT22;27511;52.042;5.178;2022-12-18T13:15:42;3.30;99.90
41838;DHT22;27511;52.042;5.178;2022-12-18T13:18:23;3.30;99.90
41838;DHT22;27511;52.042;5.178;2022-12-18T13:20:50;3.30;99.90
41838;DHT22;27511;52.042;5.178;2022-12-18T13:25:49;3.30;99.90
41838;DHT22;27511;52.042;5.178;2022-12-18T13:30:54;3.40;99.90
41838;DHT22;27511;52.042;5.178;2022-12-18T13:36:09;3.50;99.90
41838;DHT22;27511;52.042;5.178;2022-12-18T13:38:35;3.40;99.90
41838;DHT22;27511;52.042;5.178;2022-12-18T13:41:02;3.40;99.90
41838;DHT22;27511;52.042;5.178;2022-12-18T13:46:00;3.40;99.90
41838;DHT22;27511;52.042;5.178;2022-12-18T13:48:26;3.30;99.90
41838;DHT22;27511;52.042;5.178;2022-12-18T13:50:59;3.40;99.90
41838;DHT22;27511;52.042;5.178;2022-12-18T13:53:26;3.40;99.90
41838;DHT22;27511;52.042;5.178;2022-12-18T13:55:52;3.40;99.90
41838;DHT22;27511;52.042;5.178;2022-12-18T13:58:18;3.50;99.90
41838;DHT22;27511;52.042;5.178;2022-12-18T14:00:44;3.50;99.90
41838;DHT22;27511;52.042;5.178;2022-12-18T14:03:23;3.40;99.90
41838;DHT22;27511;52.042;5.178;2022-12-18T14:05:52;3.30;99.90
41838;DHT22;27511;52.042;5.178;2022-12-18T14:08:18;3.40;99.90
41838;DHT22;27511;52.042;5.178;2022-12-18T14:10:45;3.50;99.90
41838;DHT22;27511;52.042;5.178;2022-12-18T14:13:14;3.40;99.90
41838;DHT22;27511;52.042;5.178;2022-12-18T14:15:41;3.30;99.90
41838;DHT22;27511;52.042;5.178;2022-12-18T14:18:17;3.30;99.90
41838;DHT22;27511;52.042;5.178;2022-12-18T14:20:44;3.40;99.90
41838;DHT22;27511;52.042;5.178;2022-12-18T14:25:54;3.30;99.90
41838;DHT22;27511;52.042;5.178;2022-12-18T14:28:20;3.50;99.90
41838;DHT22;27511;52.042;5.178;2022-12-18T14:30:47;3.50;99.90
41838;DHT22;27511;52.042;5.178;2022-12-18T14:35:39;3.50;99.90
41838;DHT22;27511;52.042;5.178;2022-12-18T14:38:17;3.30;99.90
41838;DHT22;27511;52.042;5.178;2022-12-18T14:40:44;3.30;99.90
41838;DHT22;27511;52.042;5.178;2022-12-18T14:43:10;3.20;99.90
41838;DHT22;27511;52.042;5.178;2022-12-18T14:45:36;3.20;99.90
41838;DHT22;27511;52.042;5.178;2022-12-18T14:48:07;3.30;99.90
41838;DHT22;27511;52.042;5.178;2022-12-18T14:50:33;3.30;99.90
41838;DHT22;27511;52.042;5.178;2022-12-18T14:52:58;3.30;99.90
41838;DHT22;27511;52.042;5.178;2022-12-18T14:55:24;3.40;99.90
41838;DHT22;27511;52.042;5.178;2022-12-18T14:57:50;3.40;99.90
41838;DHT22;27511;52.042;5.178;2022-12-18T15:00:18;3.40;99.90
41838;DHT22;27511;52.042;5.178;2022-12-18T15:02:45;3.40;99.90
41838;DHT22;27511;52.042;5.178;2022-12-18T15:07:44;3.40;99.90
41838;DHT22;27511;52.042;5.178;2022-12-18T15:10:15;3.40;99.90
41838;DHT22;27511;52.042;5.178;2022-12-18T15:12:48;3.20;99.90
41838;DHT22;27511;52.042;5.178;2022-12-18T15:18:00;3.20;99.90
41838;DHT22;27511;52.042;5.178;2022-12-18T15:20:26;3.10;99.90
41838;DHT22;27511;52.042;5.178;2022-12-18T15:22:52;3.10;99.90
41838;DHT22;27511;52.042;5.178;2022-12-18T15:25:39;3.10;99.90
41838;DHT22;27511;52.042;5.178;2022-12-18T15:28:04;3.30;99.90
41838;DHT22;27511;52.042;5.178;2022-12-18T15:30:40;3.20;99.90
41838;DHT22;27511;52.042;5.178;2022-12-18T15:33:26;3.20;99.90
41838;DHT22;27511;52.042;5.178;2022-12-18T15:36:05;3.30;99.90
41838;DHT22;27511;52.042;5.178;2022-12-18T15:38:33;3.40;99.90
41838;DHT22;27511;52.042;5.178;2022-12-18T15:40:59;3.30;99.90
41838;DHT22;27511;52.042;5.178;2022-12-18T15:43:24;3.30;99.90
41838;DHT22;27511;52.042;5.178;2022-12-18T15:46:21;3.40;99.90
41838;DHT22;27511;52.042;5.178;2022-12-18T15:48:46;3.30;99.90
41838;DHT22;27511;52.042;5.178;2022-12-18T15:51:13;3.30;99.90
41838;DHT22;27511;52.042;5.178;2022-12-18T15:53:40;3.40;99.90
41838;DHT22;27511;52.042;5.178;2022-12-18T15:56:09;3.30;99.90
41838;DHT22;27511;52.042;5.178;2022-12-18T15:58:53;3.20;99.90
41838;DHT22;27511;52.042;5.178;2022-12-18T16:01:19;3.30;99.90
41838;DHT22;27511;52.042;5.178;2022-12-18T16:03:45;3.30;99.90
41838;DHT22;27511;52.042;5.178;2022-12-18T16:06:11;3.20;99.90
41838;DHT22;27511;52.042;5.178;2022-12-18T16:08:36;3.10;99.90
41838;DHT22;27511;52.042;5.178;2022-12-18T16:11:02;3.10;99.90
41838;DHT22;27511;52.042;5.178;2022-12-18T16:13:27;3.30;99.90
41838;DHT22;27511;52.042;5.178;2022-12-18T16:15:53;3.20;99.90
41838;DHT22;27511;52.042;5.178;2022-12-18T16:18:18;3.20;99.90
41838;DHT22;27511;52.042;5.178;2022-12-18T16:20:44;3.20;99.90
41838;DHT22;27511;52.042;5.178;2022-12-18T16:23:09;3.30;99.90
41838;DHT22;27511;52.042;5.178;2022-12-18T16:25:35;3.40;99.90
41838;DHT22;27511;52.042;5.178;2022-12-18T16:28:00;3.40;99.90
41838;DHT22;27511;52.042;5.178;2022-12-18T16:30:27;3.30;99.90
41838;DHT22;27511;52.042;5.178;2022-12-18T16:32:54;3.20;99.90
41838;DHT22;27511;52.042;5.178;2022-12-18T16:35:20;3.40;99.90
41838;DHT22;27511;52.042;5.178;2022-12-18T16:37:46;3.40;99.90
41838;DHT22;27511;52.042;5.178;2022-12-18T16:40:12;3.50;99.90
41838;DHT22;27511;52.042;5.178;2022-12-18T16:42:38;3.60;99.90
41838;DHT22;27511;52.042;5.178;2022-12-18T16:45:05;3.70;99.90
41838;DHT22;27511;52.042;5.178;2022-12-18T16:47:31;3.70;99.90
41838;DHT22;27511;52.042;5.178;2022-12-18T16:49:56;3.70;99.90
41838;DHT22;27511;52.042;5.178;2022-12-18T16:52:22;3.70;99.90
41838;DHT22;27511;52.042;5.178;2022-12-18T16:54:47;3.60;99.90
41838;DHT22;27511;52.042;5.178;2022-12-18T16:57:14;3.60;99.90
41838;DHT22;27511;52.042;5.178;2022-12-18T16:59:40;3.60;99.90
41838;DHT22;27511;52.042;5.178;2022-12-18T17:02:05;3.70;99.90
41838;DHT22;27511;52.042;5.178;2022-12-18T17:04:31;3.80;99.90
41838;DHT22;27511;52.042;5.178;2022-12-18T17:06:57;3.70;99.90
41838;DHT22;27511;52.042;5.178;2022-12-18T17:09:23;3.70;99.90
41838;DHT22;27511;52.042;5.178;2022-12-18T17:11:52;3.80;99.90
41838;DHT22;27511;52.042;5.178;2022-12-18T17:14:18;3.70;99.90
41838;DHT22;27511;52.042;5.178;2022-12-18T17:16:44;3.60;99.90
41838;DHT22;27511;52.042;5.178;2022-12-18T17:19:11;3.70;99.90
41838;DHT22;27511;52.042;5.178;2022-12-18T17:21:36;3.70;99.90
41838;DHT22;27511;52.042;5.178;2022-12-18T17:24:02;3.80;99.90
41838;DHT22;27511;52.042;5.178;2022-12-18T17:26:27;3.70;99.90
41838;DHT22;27511;52.042;5.178;2022-12-18T17:28:54;3.70;99.90
41838;DHT22;27511;52.042;5.178;2022-12-18T17:31:21;3.70;99.90
41838;DHT22;27511;52.042;5.178;2022-12-18T17:33:46;3.60;99.90
41838;DHT22;27511;52.042;5.178;2022-12-18T17:36:12;3.40;99.90
41838;DHT22;27511;52.042;5.178;2022-12-18T17:38:38;3.50;99.90
41838;DHT22;27511;52.042;5.178;2022-12-18T17:41:04;3.50;99.90
41838;DHT22;27511;52.042;5.178;2022-12-18T17:43:30;3.60;99.90